sensor_id;sensor_type;location;lat;lon;timestamp;P1;durP1;ratioP1;P2;durP2;ratioP2
71655;SDS011;59497;48.798;8.816;2023-09-18T00:01:17;3.87;;;2.30;;
71655;SDS011;59497;48.798;8.816;2023-09-18T00:03:44;4.40;;;2.87;;
71655;SDS011;59497;48.798;8.816;2023-09-18T00:06:10;3.78;;;2.80;;
71655;SDS011;59497;48.798;8.816;2023-09-18T00:08:36;5.20;;;2.92;;
71655;SDS011;59497;48.798;8.816;2023-09-18T00:11:03;2.90;;;2.60;;
71655;SDS011;59497;48.798;8.816;2023-09-18T00:13:28;4.83;;;3.00;;
71655;SDS011;59497;48.798;8.816;2023-09-18T00:15:54;7.93;;;3.07;;
71655;SDS011;59497;48.798;8.816;2023-09-18T00:18:20;3.22;;;2.55;;
71655;SDS011;59497;48.798;8.816;2023-09-18T00:20:46;4.75;;;2.80;;
71655;SDS011;59497;48.798;8.816;2023-09-18T00:23:13;6.00;;;2.95;;
71655;SDS011;59497;48.798;8.816;2023-09-18T00:25:38;4.17;;;3.00;;
71655;SDS011;59497;48.798;8.816;2023-09-18T00:28:06;4.18;;;2.60;;
71655;SDS011;59497;48.798;8.816;2023-09-18T00:30:31;5.77;;;3.07;;
71655;SDS011;59497;48.798;8.816;2023-09-18T00:32:56;4.10;;;2.53;;
71655;SDS011;59497;48.798;8.816;2023-09-18T00:35:21;2.80;;;2.50;;
71655;SDS011;59497;48.798;8.816;2023-09-18T00:37:48;3.93;;;2.67;;
71655;SDS011;59497;48.798;8.816;2023-09-18T00:40:13;6.17;;;2.60;;
71655;SDS011;59497;48.798;8.816;2023-09-18T00:42:38;7.73;;;2.50;;
71655;SDS011;59497;48.798;8.816;2023-09-18T00:45:03;4.15;;;2.50;;
71655;SDS011;59497;48.798;8.816;2023-09-18T00:47:29;4.10;;;2.60;;
71655;SDS011;59497;48.798;8.816;2023-09-18T00:49:54;4.60;;;2.50;;
71655;SDS011;59497;48.798;8.816;2023-09-18T00:52:20;3.90;;;2.83;;
71655;SDS011;59497;48.798;8.816;2023-09-18T00:54:46;6.45;;;3.10;;
71655;SDS011;59497;48.798;8.816;2023-09-18T00:57:13;4.82;;;3.25;;
71655;SDS011;59497;48.798;8.816;2023-09-18T00:59:38;4.07;;;2.70;;
71655;SDS011;59497;48.798;8.816;2023-09-18T01:02:03;3.00;;;2.33;;
71655;SDS011;59497;48.798;8.816;2023-09-18T01:04:29;4.05;;;3.10;;
71655;SDS011;59497;48.798;8.816;2023-09-18T01:06:55;3.63;;;2.77;;
71655;SDS011;59497;48.798;8.816;2023-09-18T01:09:21;3.13;;;2.40;;
71655;SDS011;59497;48.798;8.816;2023-09-18T01:16:56;3.88;;;2.58;;
71655;SDS011;59497;48.798;8.816;2023-09-18T01:22:20;5.68;;;2.67;;
71655;SDS011;59497;48.798;8.816;2023-09-18T01:24:46;2.87;;;2.57;;
71655;SDS011;59497;48.798;8.816;2023-09-18T01:27:12;3.40;;;2.63;;
71655;SDS011;59497;48.798;8.816;2023-09-18T01:29:38;6.28;;;2.20;;
71655;SDS011;59497;48.798;8.816;2023-09-18T01:32:03;4.37;;;1.77;;
71655;SDS011;59497;48.798;8.816;2023-09-18T01:34:30;3.93;;;2.30;;
71655;SDS011;59497;48.798;8.816;2023-09-18T01:36:56;3.55;;;2.67;;
71655;SDS011;59497;48.798;8.816;2023-09-18T01:39:22;5.93;;;2.33;;
71655;SDS011;59497;48.798;8.816;2023-09-18T01:41:47;4.87;;;1.73;;
71655;SDS011;59497;48.798;8.816;2023-09-18T01:44:12;4.00;;;2.33;;
71655;SDS011;59497;48.798;8.816;2023-09-18T01:46:38;4.93;;;2.03;;
71655;SDS011;59497;48.798;8.816;2023-09-18T01:49:03;4.57;;;2.38;;
71655;SDS011;59497;48.798;8.816;2023-09-18T01:51:29;4.73;;;2.10;;
71655;SDS011;59497;48.798;8.816;2023-09-18T01:53:54;5.93;;;2.90;;
71655;SDS011;59497;48.798;8.816;2023-09-18T01:56:20;4.93;;;2.40;;
71655;SDS011;59497;48.798;8.816;2023-09-18T01:58:45;4.83;;;2.37;;
71655;SDS011;59497;48.798;8.816;2023-09-18T02:01:10;6.40;;;2.13;;
71655;SDS011;59497;48.798;8.816;2023-09-18T02:03:35;7.55;;;2.00;;
71655;SDS011;59497;48.798;8.816;2023-09-18T02:06:00;6.20;;;2.80;;
71655;SDS011;59497;48.798;8.816;2023-09-18T02:08:26;4.35;;;2.40;;
71655;SDS011;59497;48.798;8.816;2023-09-18T02:10:51;4.77;;;2.37;;
71655;SDS011;59497;48.798;8.816;2023-09-18T02:13:16;4.33;;;2.50;;
71655;SDS011;59497;48.798;8.816;2023-09-18T02:15:43;4.10;;;1.93;;
71655;SDS011;59497;48.798;8.816;2023-09-18T02:18:08;5.32;;;2.60;;
71655;SDS011;59497;48.798;8.816;2023-09-18T02:20:39;4.07;;;2.17;;
71655;SDS011;59497;48.798;8.816;2023-09-18T02:23:05;3.97;;;2.03;;
71655;SDS011;59497;48.798;8.816;2023-09-18T02:25:30;4.07;;;2.20;;
71655;SDS011;59497;48.798;8.816;2023-09-18T02:27:55;4.43;;;2.17;;
71655;SDS011;59497;48.798;8.816;2023-09-18T02:30:20;5.77;;;2.17;;
71655;SDS011;59497;48.798;8.816;2023-09-18T02:32:45;4.47;;;2.13;;
71655;SDS011;59497;48.798;8.816;2023-09-18T02:35:11;6.20;;;2.50;;
71655;SDS011;59497;48.798;8.816;2023-09-18T02:37:36;4.17;;;2.53;;
71655;SDS011;59497;48.798;8.816;2023-09-18T02:40:01;5.43;;;2.10;;
71655;SDS011;59497;48.798;8.816;2023-09-18T02:42:27;6.77;;;2.20;;
71655;SDS011;59497;48.798;8.816;2023-09-18T02:44:52;4.50;;;1.90;;
71655;SDS011;59497;48.798;8.816;2023-09-18T02:47:17;7.50;;;2.10;;
71655;SDS011;59497;48.798;8.816;2023-09-18T02:49:43;4.87;;;1.80;;
71655;SDS011;59497;48.798;8.816;2023-09-18T02:52:08;7.07;;;2.13;;
71655;SDS011;59497;48.798;8.816;2023-09-18T02:54:33;3.77;;;1.83;;
71655;SDS011;59497;48.798;8.816;2023-09-18T02:56:58;6.63;;;2.17;;
71655;SDS011;59497;48.798;8.816;2023-09-18T02:59:23;4.87;;;2.20;;
71655;SDS011;59497;48.798;8.816;2023-09-18T03:01:48;4.83;;;1.90;;
71655;SDS011;59497;48.798;8.816;2023-09-18T03:04:14;4.33;;;1.47;;
71655;SDS011;59497;48.798;8.816;2023-09-18T03:06:39;5.00;;;1.70;;
71655;SDS011;59497;48.798;8.816;2023-09-18T03:09:05;4.80;;;2.50;;
71655;SDS011;59497;48.798;8.816;2023-09-18T03:11:30;6.47;;;2.80;;
71655;SDS011;59497;48.798;8.816;2023-09-18T03:13:55;3.60;;;2.00;;
71655;SDS011;59497;48.798;8.816;2023-09-18T03:16:21;5.00;;;2.70;;
71655;SDS011;59497;48.798;8.816;2023-09-18T03:18:46;4.63;;;2.10;;
71655;SDS011;59497;48.798;8.816;2023-09-18T03:21:11;3.07;;;1.97;;
71655;SDS011;59497;48.798;8.816;2023-09-18T03:23:36;5.47;;;2.03;;
71655;SDS011;59497;48.798;8.816;2023-09-18T03:26:01;5.17;;;1.90;;
71655;SDS011;59497;48.798;8.816;2023-09-18T03:28:27;5.32;;;1.83;;
71655;SDS011;59497;48.798;8.816;2023-09-18T03:30:52;4.03;;;2.30;;
71655;SDS011;59497;48.798;8.816;2023-09-18T03:33:18;3.37;;;1.87;;
71655;SDS011;59497;48.798;8.816;2023-09-18T03:35:46;4.83;;;2.00;;
71655;SDS011;59497;48.798;8.816;2023-09-18T03:38:12;3.65;;;2.10;;
71655;SDS011;59497;48.798;8.816;2023-09-18T03:40:38;4.40;;;1.90;;
71655;SDS011;59497;48.798;8.816;2023-09-18T03:43:03;6.47;;;2.53;;
71655;SDS011;59497;48.798;8.816;2023-09-18T03:45:28;5.13;;;2.50;;
71655;SDS011;59497;48.798;8.816;2023-09-18T03:47:53;5.77;;;2.40;;
71655;SDS011;59497;48.798;8.816;2023-09-18T03:50:18;5.47;;;2.03;;
71655;SDS011;59497;48.798;8.816;2023-09-18T03:52:44;5.60;;;2.10;;
71655;SDS011;59497;48.798;8.816;2023-09-18T03:55:09;7.93;;;2.27;;
71655;SDS011;59497;48.798;8.816;2023-09-18T03:57:34;8.67;;;3.07;;
71655;SDS011;59497;48.798;8.816;2023-09-18T04:00:00;5.35;;;2.17;;
71655;SDS011;59497;48.798;8.816;2023-09-18T04:02:25;7.93;;;2.10;;
71655;SDS011;59497;48.798;8.816;2023-09-18T04:04:51;7.97;;;2.03;;
71655;SDS011;59497;48.798;8.816;2023-09-18T04:07:16;6.57;;;2.03;;
71655;SDS011;59497;48.798;8.816;2023-09-18T04:09:41;4.57;;;2.03;;
71655;SDS011;59497;48.798;8.816;2023-09-18T04:12:07;4.90;;;1.75;;
71655;SDS011;59497;48.798;8.816;2023-09-18T04:14:32;5.93;;;1.83;;
71655;SDS011;59497;48.798;8.816;2023-09-18T04:16:57;6.13;;;2.47;;
71655;SDS011;59497;48.798;8.816;2023-09-18T04:19:22;3.73;;;1.70;;
71655;SDS011;59497;48.798;8.816;2023-09-18T04:21:48;7.05;;;1.52;;
71655;SDS011;59497;48.798;8.816;2023-09-18T04:24:13;2.33;;;1.50;;
71655;SDS011;59497;48.798;8.816;2023-09-18T04:26:38;6.33;;;1.63;;
71655;SDS011;59497;48.798;8.816;2023-09-18T04:29:04;8.00;;;1.83;;
71655;SDS011;59497;48.798;8.816;2023-09-18T04:31:29;5.33;;;1.80;;
71655;SDS011;59497;48.798;8.816;2023-09-18T04:33:55;3.57;;;1.43;;
71655;SDS011;59497;48.798;8.816;2023-09-18T04:36:20;2.27;;;1.40;;
71655;SDS011;59497;48.798;8.816;2023-09-18T04:38:45;6.73;;;1.97;;
71655;SDS011;59497;48.798;8.816;2023-09-18T04:41:11;3.07;;;1.37;;
71655;SDS011;59497;48.798;8.816;2023-09-18T04:43:36;4.10;;;1.40;;
71655;SDS011;59497;48.798;8.816;2023-09-18T04:46:03;4.28;;;1.58;;
71655;SDS011;59497;48.798;8.816;2023-09-18T04:48:30;4.85;;;1.40;;
71655;SDS011;59497;48.798;8.816;2023-09-18T04:50:55;3.10;;;1.50;;
71655;SDS011;59497;48.798;8.816;2023-09-18T04:53:20;3.63;;;1.50;;
71655;SDS011;59497;48.798;8.816;2023-09-18T04:55:46;4.47;;;1.40;;
71655;SDS011;59497;48.798;8.816;2023-09-18T04:58:14;5.63;;;1.90;;
71655;SDS011;59497;48.798;8.816;2023-09-18T05:00:39;6.90;;;1.67;;
71655;SDS011;59497;48.798;8.816;2023-09-18T05:03:04;3.20;;;1.47;;
71655;SDS011;59497;48.798;8.816;2023-09-18T05:05:30;4.70;;;1.55;;
71655;SDS011;59497;48.798;8.816;2023-09-18T05:07:55;2.67;;;1.30;;
71655;SDS011;59497;48.798;8.816;2023-09-18T05:10:20;3.70;;;1.30;;
71655;SDS011;59497;48.798;8.816;2023-09-18T05:12:46;3.63;;;1.73;;
71655;SDS011;59497;48.798;8.816;2023-09-18T05:15:11;5.70;;;1.37;;
71655;SDS011;59497;48.798;8.816;2023-09-18T05:17:44;3.63;;;1.30;;
71655;SDS011;59497;48.798;8.816;2023-09-18T05:20:11;4.80;;;1.63;;
71655;SDS011;59497;48.798;8.816;2023-09-18T05:22:38;3.83;;;1.33;;
71655;SDS011;59497;48.798;8.816;2023-09-18T05:25:03;3.23;;;1.50;;
71655;SDS011;59497;48.798;8.816;2023-09-18T05:27:30;4.63;;;1.67;;
71655;SDS011;59497;48.798;8.816;2023-09-18T05:29:56;5.07;;;1.77;;
71655;SDS011;59497;48.798;8.816;2023-09-18T05:32:21;3.90;;;1.40;;
71655;SDS011;59497;48.798;8.816;2023-09-18T05:34:46;4.93;;;1.47;;
71655;SDS011;59497;48.798;8.816;2023-09-18T05:37:11;5.53;;;1.77;;
71655;SDS011;59497;48.798;8.816;2023-09-18T05:39:37;5.57;;;1.70;;
71655;SDS011;59497;48.798;8.816;2023-09-18T05:42:02;6.33;;;1.93;;
71655;SDS011;59497;48.798;8.816;2023-09-18T05:44:27;3.65;;;1.55;;
71655;SDS011;59497;48.798;8.816;2023-09-18T05:46:52;5.43;;;1.90;;
71655;SDS011;59497;48.798;8.816;2023-09-18T05:49:17;3.80;;;1.50;;
71655;SDS011;59497;48.798;8.816;2023-09-18T05:51:43;6.10;;;2.17;;
71655;SDS011;59497;48.798;8.816;2023-09-18T05:54:08;3.27;;;1.20;;
71655;SDS011;59497;48.798;8.816;2023-09-18T05:56:34;3.67;;;1.63;;
71655;SDS011;59497;48.798;8.816;2023-09-18T05:58:59;3.43;;;1.43;;
71655;SDS011;59497;48.798;8.816;2023-09-18T06:01:24;3.95;;;2.00;;
71655;SDS011;59497;48.798;8.816;2023-09-18T06:03:50;4.53;;;1.85;;
71655;SDS011;59497;48.798;8.816;2023-09-18T06:06:15;6.57;;;1.60;;
71655;SDS011;59497;48.798;8.816;2023-09-18T06:08:40;3.10;;;1.37;;
71655;SDS011;59497;48.798;8.816;2023-09-18T06:11:05;3.77;;;1.80;;
71655;SDS011;59497;48.798;8.816;2023-09-18T06:13:30;5.43;;;1.50;;
71655;SDS011;59497;48.798;8.816;2023-09-18T06:15:56;4.43;;;1.37;;
71655;SDS011;59497;48.798;8.816;2023-09-18T06:18:21;5.70;;;1.27;;
71655;SDS011;59497;48.798;8.816;2023-09-18T06:20:47;3.60;;;1.60;;
71655;SDS011;59497;48.798;8.816;2023-09-18T06:23:12;3.67;;;1.57;;
71655;SDS011;59497;48.798;8.816;2023-09-18T06:25:38;3.37;;;1.50;;
71655;SDS011;59497;48.798;8.816;2023-09-18T06:28:03;3.50;;;1.20;;
71655;SDS011;59497;48.798;8.816;2023-09-18T06:30:29;3.53;;;1.73;;
71655;SDS011;59497;48.798;8.816;2023-09-18T06:32:55;3.57;;;1.40;;
71655;SDS011;59497;48.798;8.816;2023-09-18T06:35:21;3.57;;;1.83;;
71655;SDS011;59497;48.798;8.816;2023-09-18T06:37:46;8.40;;;1.80;;
71655;SDS011;59497;48.798;8.816;2023-09-18T06:40:11;3.45;;;1.40;;
71655;SDS011;59497;48.798;8.816;2023-09-18T06:42:37;3.47;;;1.30;;
71655;SDS011;59497;48.798;8.816;2023-09-18T06:45:02;3.80;;;1.50;;
71655;SDS011;59497;48.798;8.816;2023-09-18T06:47:31;2.63;;;1.00;;
71655;SDS011;59497;48.798;8.816;2023-09-18T06:49:57;3.77;;;1.13;;
71655;SDS011;59497;48.798;8.816;2023-09-18T06:52:22;4.77;;;1.33;;
71655;SDS011;59497;48.798;8.816;2023-09-18T06:54:48;2.15;;;0.85;;
71655;SDS011;59497;48.798;8.816;2023-09-18T06:57:13;5.33;;;1.27;;
71655;SDS011;59497;48.798;8.816;2023-09-18T06:59:38;1.87;;;1.03;;
71655;SDS011;59497;48.798;8.816;2023-09-18T07:02:03;2.27;;;1.10;;
71655;SDS011;59497;48.798;8.816;2023-09-18T07:04:29;2.33;;;0.97;;
71655;SDS011;59497;48.798;8.816;2023-09-18T07:06:54;0.80;;;0.80;;
71655;SDS011;59497;48.798;8.816;2023-09-18T07:09:19;1.93;;;0.60;;
71655;SDS011;59497;48.798;8.816;2023-09-18T07:11:48;2.95;;;1.38;;
71655;SDS011;59497;48.798;8.816;2023-09-18T07:14:13;2.73;;;1.03;;
71655;SDS011;59497;48.798;8.816;2023-09-18T07:16:38;1.27;;;0.80;;
71655;SDS011;59497;48.798;8.816;2023-09-18T07:19:03;2.03;;;1.40;;
71655;SDS011;59497;48.798;8.816;2023-09-18T07:21:29;3.08;;;0.82;;
71655;SDS011;59497;48.798;8.816;2023-09-18T07:23:55;2.37;;;1.10;;
71655;SDS011;59497;48.798;8.816;2023-09-18T07:26:20;2.17;;;0.90;;
71655;SDS011;59497;48.798;8.816;2023-09-18T07:28:45;2.35;;;1.17;;
71655;SDS011;59497;48.798;8.816;2023-09-18T07:31:11;1.83;;;0.83;;
71655;SDS011;59497;48.798;8.816;2023-09-18T07:33:37;2.38;;;0.93;;
71655;SDS011;59497;48.798;8.816;2023-09-18T07:36:02;2.17;;;0.83;;
71655;SDS011;59497;48.798;8.816;2023-09-18T07:38:28;1.67;;;0.90;;
71655;SDS011;59497;48.798;8.816;2023-09-18T07:40:53;1.55;;;1.10;;
71655;SDS011;59497;48.798;8.816;2023-09-18T07:43:18;2.20;;;0.60;;
71655;SDS011;59497;48.798;8.816;2023-09-18T07:45:44;1.80;;;0.90;;
71655;SDS011;59497;48.798;8.816;2023-09-18T07:48:10;1.40;;;0.90;;
71655;SDS011;59497;48.798;8.816;2023-09-18T07:50:35;2.30;;;1.10;;
71655;SDS011;59497;48.798;8.816;2023-09-18T07:53:00;1.57;;;1.20;;
71655;SDS011;59497;48.798;8.816;2023-09-18T07:55:26;3.47;;;0.82;;
71655;SDS011;59497;48.798;8.816;2023-09-18T07:57:51;1.00;;;0.67;;
71655;SDS011;59497;48.798;8.816;2023-09-18T08:00:16;2.27;;;0.70;;
71655;SDS011;59497;48.798;8.816;2023-09-18T08:02:42;1.20;;;0.80;;
71655;SDS011;59497;48.798;8.816;2023-09-18T08:05:07;2.20;;;0.90;;
71655;SDS011;59497;48.798;8.816;2023-09-18T08:07:33;1.67;;;0.90;;
71655;SDS011;59497;48.798;8.816;2023-09-18T08:10:00;2.10;;;1.02;;
71655;SDS011;59497;48.798;8.816;2023-09-18T08:12:25;0.90;;;0.90;;
71655;SDS011;59497;48.798;8.816;2023-09-18T08:14:50;1.33;;;1.00;;
71655;SDS011;59497;48.798;8.816;2023-09-18T08:17:16;0.80;;;0.40;;
71655;SDS011;59497;48.798;8.816;2023-09-18T08:19:41;3.80;;;0.90;;
71655;SDS011;59497;48.798;8.816;2023-09-18T08:22:06;2.73;;;1.20;;
71655;SDS011;59497;48.798;8.816;2023-09-18T08:24:31;1.70;;;0.83;;
71655;SDS011;59497;48.798;8.816;2023-09-18T08:26:57;1.83;;;1.00;;
71655;SDS011;59497;48.798;8.816;2023-09-18T08:29:22;2.93;;;1.17;;
71655;SDS011;59497;48.798;8.816;2023-09-18T08:31:48;6.47;;;1.10;;
71655;SDS011;59497;48.798;8.816;2023-09-18T08:34:14;4.03;;;1.30;;
71655;SDS011;59497;48.798;8.816;2023-09-18T08:36:39;0.93;;;0.77;;
71655;SDS011;59497;48.798;8.816;2023-09-18T08:39:04;2.03;;;0.83;;
71655;SDS011;59497;48.798;8.816;2023-09-18T08:41:31;1.42;;;0.90;;
71655;SDS011;59497;48.798;8.816;2023-09-18T08:43:57;2.53;;;0.83;;
71655;SDS011;59497;48.798;8.816;2023-09-18T08:46:24;2.67;;;0.98;;
71655;SDS011;59497;48.798;8.816;2023-09-18T08:48:50;2.58;;;0.90;;
71655;SDS011;59497;48.798;8.816;2023-09-18T08:51:16;2.60;;;0.93;;
71655;SDS011;59497;48.798;8.816;2023-09-18T08:53:42;1.10;;;1.00;;
71655;SDS011;59497;48.798;8.816;2023-09-18T08:56:08;4.40;;;1.25;;
71655;SDS011;59497;48.798;8.816;2023-09-18T08:58:34;2.67;;;1.13;;
71655;SDS011;59497;48.798;8.816;2023-09-18T09:01:02;3.08;;;1.23;;
71655;SDS011;59497;48.798;8.816;2023-09-18T09:03:29;2.17;;;1.20;;
71655;SDS011;59497;48.798;8.816;2023-09-18T09:05:54;1.00;;;0.88;;
71655;SDS011;59497;48.798;8.816;2023-09-18T09:08:20;3.13;;;1.30;;
71655;SDS011;59497;48.798;8.816;2023-09-18T09:10:46;3.37;;;1.13;;
71655;SDS011;59497;48.798;8.816;2023-09-18T09:13:11;2.23;;;1.13;;
71655;SDS011;59497;48.798;8.816;2023-09-18T09:15:44;1.73;;;1.13;;
71655;SDS011;59497;48.798;8.816;2023-09-18T09:18:11;3.45;;;0.70;;
71655;SDS011;59497;48.798;8.816;2023-09-18T09:20:37;1.73;;;1.10;;
71655;SDS011;59497;48.798;8.816;2023-09-18T09:23:03;3.55;;;0.82;;
71655;SDS011;59497;48.798;8.816;2023-09-18T09:25:29;1.48;;;0.80;;
71655;SDS011;59497;48.798;8.816;2023-09-18T09:27:57;1.57;;;1.00;;
71655;SDS011;59497;48.798;8.816;2023-09-18T09:30:23;5.50;;;1.02;;
71655;SDS011;59497;48.798;8.816;2023-09-18T09:32:49;2.42;;;0.90;;
71655;SDS011;59497;48.798;8.816;2023-09-18T09:35:19;2.42;;;1.27;;
71655;SDS011;59497;48.798;8.816;2023-09-18T09:37:45;3.13;;;1.35;;
71655;SDS011;59497;48.798;8.816;2023-09-18T09:40:11;3.20;;;0.90;;
71655;SDS011;59497;48.798;8.816;2023-09-18T09:42:39;2.27;;;1.33;;
71655;SDS011;59497;48.798;8.816;2023-09-18T09:45:13;5.93;;;1.00;;
71655;SDS011;59497;48.798;8.816;2023-09-18T09:47:40;2.45;;;1.27;;
71655;SDS011;59497;48.798;8.816;2023-09-18T09:50:09;1.80;;;1.00;;
71655;SDS011;59497;48.798;8.816;2023-09-18T09:52:35;1.88;;;1.08;;
71655;SDS011;59497;48.798;8.816;2023-09-18T09:55:01;2.27;;;1.23;;
71655;SDS011;59497;48.798;8.816;2023-09-18T09:57:28;1.55;;;0.80;;
71655;SDS011;59497;48.798;8.816;2023-09-18T09:59:55;2.23;;;1.40;;
71655;SDS011;59497;48.798;8.816;2023-09-18T10:02:31;3.13;;;1.17;;
71655;SDS011;59497;48.798;8.816;2023-09-18T10:04:59;2.40;;;1.17;;
71655;SDS011;59497;48.798;8.816;2023-09-18T10:07:24;4.00;;;1.00;;
71655;SDS011;59497;48.798;8.816;2023-09-18T10:09:50;1.50;;;1.20;;
71655;SDS011;59497;48.798;8.816;2023-09-18T10:12:17;1.77;;;0.90;;
71655;SDS011;59497;48.798;8.816;2023-09-18T10:14:45;1.40;;;0.82;;
71655;SDS011;59497;48.798;8.816;2023-09-18T10:17:17;3.75;;;1.00;;
71655;SDS011;59497;48.798;8.816;2023-09-18T10:19:45;1.05;;;0.70;;
71655;SDS011;59497;48.798;8.816;2023-09-18T10:22:32;2.10;;;1.10;;
71655;SDS011;59497;48.798;8.816;2023-09-18T10:27:35;1.45;;;0.90;;
71655;SDS011;59497;48.798;8.816;2023-09-18T10:30:00;2.40;;;1.25;;
71655;SDS011;59497;48.798;8.816;2023-09-18T10:32:30;2.17;;;1.20;;
71655;SDS011;59497;48.798;8.816;2023-09-18T10:34:57;2.77;;;1.30;;
71655;SDS011;59497;48.798;8.816;2023-09-18T10:37:25;1.40;;;1.23;;
71655;SDS011;59497;48.798;8.816;2023-09-18T10:39:51;3.25;;;1.27;;
71655;SDS011;59497;48.798;8.816;2023-09-18T10:42:18;3.38;;;1.20;;
71655;SDS011;59497;48.798;8.816;2023-09-18T10:44:43;1.57;;;1.40;;
71655;SDS011;59497;48.798;8.816;2023-09-18T10:47:10;2.13;;;1.50;;
71655;SDS011;59497;48.798;8.816;2023-09-18T10:49:35;1.23;;;1.13;;
71655;SDS011;59497;48.798;8.816;2023-09-18T10:52:00;1.87;;;1.20;;
71655;SDS011;59497;48.798;8.816;2023-09-18T10:54:27;2.00;;;1.07;;
71655;SDS011;59497;48.798;8.816;2023-09-18T10:56:53;3.42;;;1.45;;
71655;SDS011;59497;48.798;8.816;2023-09-18T10:59:19;2.83;;;1.00;;
71655;SDS011;59497;48.798;8.816;2023-09-18T11:01:45;1.13;;;1.03;;
71655;SDS011;59497;48.798;8.816;2023-09-18T11:04:13;1.17;;;1.05;;
71655;SDS011;59497;48.798;8.816;2023-09-18T11:12:01;2.67;;;1.20;;
71655;SDS011;59497;48.798;8.816;2023-09-18T11:14:48;2.23;;;0.90;;
71655;SDS011;59497;48.798;8.816;2023-09-18T11:19:55;2.22;;;1.15;;
71655;SDS011;59497;48.798;8.816;2023-09-18T11:22:26;2.05;;;1.00;;
71655;SDS011;59497;48.798;8.816;2023-09-18T11:24:51;1.73;;;1.20;;
71655;SDS011;59497;48.798;8.816;2023-09-18T11:27:21;1.70;;;1.10;;
71655;SDS011;59497;48.798;8.816;2023-09-18T11:29:50;1.83;;;0.70;;
71655;SDS011;59497;48.798;8.816;2023-09-18T11:32:17;0.93;;;0.88;;
71655;SDS011;59497;48.798;8.816;2023-09-18T11:35:08;1.35;;;0.85;;
71655;SDS011;59497;48.798;8.816;2023-09-18T11:37:33;1.20;;;1.00;;
71655;SDS011;59497;48.798;8.816;2023-09-18T11:39:59;0.88;;;0.80;;
71655;SDS011;59497;48.798;8.816;2023-09-18T11:42:25;4.83;;;0.97;;
71655;SDS011;59497;48.798;8.816;2023-09-18T11:44:53;2.13;;;1.13;;
71655;SDS011;59497;48.798;8.816;2023-09-18T11:47:21;2.38;;;0.90;;
71655;SDS011;59497;48.798;8.816;2023-09-18T11:52:21;3.40;;;1.35;;
71655;SDS011;59497;48.798;8.816;2023-09-18T11:54:47;2.77;;;1.27;;
71655;SDS011;59497;48.798;8.816;2023-09-18T11:57:13;2.55;;;1.27;;
71655;SDS011;59497;48.798;8.816;2023-09-18T11:59:39;1.50;;;1.07;;
71655;SDS011;59497;48.798;8.816;2023-09-18T12:02:04;2.08;;;1.27;;
71655;SDS011;59497;48.798;8.816;2023-09-18T12:04:31;2.15;;;1.08;;
71655;SDS011;59497;48.798;8.816;2023-09-18T12:06:58;4.57;;;1.52;;
71655;SDS011;59497;48.798;8.816;2023-09-18T12:09:26;2.60;;;1.20;;
71655;SDS011;59497;48.798;8.816;2023-09-18T12:11:51;3.08;;;1.35;;
71655;SDS011;59497;48.798;8.816;2023-09-18T12:14:20;2.80;;;1.50;;
71655;SDS011;59497;48.798;8.816;2023-09-18T12:16:45;3.83;;;1.37;;
71655;SDS011;59497;48.798;8.816;2023-09-18T12:19:15;2.67;;;1.30;;
71655;SDS011;59497;48.798;8.816;2023-09-18T12:21:41;2.78;;;1.00;;
71655;SDS011;59497;48.798;8.816;2023-09-18T12:24:06;2.60;;;1.37;;
71655;SDS011;59497;48.798;8.816;2023-09-18T12:26:31;1.77;;;1.30;;
71655;SDS011;59497;48.798;8.816;2023-09-18T12:28:58;1.43;;;0.93;;
71655;SDS011;59497;48.798;8.816;2023-09-18T12:31:24;3.28;;;0.98;;
71655;SDS011;59497;48.798;8.816;2023-09-18T12:33:50;3.03;;;1.13;;
71655;SDS011;59497;48.798;8.816;2023-09-18T12:36:19;2.17;;;1.23;;
71655;SDS011;59497;48.798;8.816;2023-09-18T12:38:45;2.25;;;1.50;;
71655;SDS011;59497;48.798;8.816;2023-09-18T12:41:19;3.33;;;1.63;;
71655;SDS011;59497;48.798;8.816;2023-09-18T12:43:46;1.97;;;1.50;;
71655;SDS011;59497;48.798;8.816;2023-09-18T12:46:11;3.80;;;1.40;;
71655;SDS011;59497;48.798;8.816;2023-09-18T12:48:37;2.93;;;1.73;;
71655;SDS011;59497;48.798;8.816;2023-09-18T12:51:03;2.20;;;1.50;;
71655;SDS011;59497;48.798;8.816;2023-09-18T12:53:28;2.30;;;1.23;;
71655;SDS011;59497;48.798;8.816;2023-09-18T12:55:54;1.57;;;1.27;;
71655;SDS011;59497;48.798;8.816;2023-09-18T12:58:19;1.92;;;1.50;;
71655;SDS011;59497;48.798;8.816;2023-09-18T13:00:45;3.73;;;1.57;;
71655;SDS011;59497;48.798;8.816;2023-09-18T13:03:12;2.17;;;1.20;;
71655;SDS011;59497;48.798;8.816;2023-09-18T13:05:37;2.83;;;1.63;;
71655;SDS011;59497;48.798;8.816;2023-09-18T13:08:03;3.40;;;1.20;;
71655;SDS011;59497;48.798;8.816;2023-09-18T13:10:29;2.55;;;1.10;;
71655;SDS011;59497;48.798;8.816;2023-09-18T13:12:54;1.67;;;1.30;;
71655;SDS011;59497;48.798;8.816;2023-09-18T13:15:27;2.97;;;1.33;;
71655;SDS011;59497;48.798;8.816;2023-09-18T13:17:53;1.60;;;1.35;;
71655;SDS011;59497;48.798;8.816;2023-09-18T13:20:23;1.87;;;1.23;;
71655;SDS011;59497;48.798;8.816;2023-09-18T13:22:52;5.47;;;1.83;;
71655;SDS011;59497;48.798;8.816;2023-09-18T13:25:19;2.15;;;1.25;;
71655;SDS011;59497;48.798;8.816;2023-09-18T13:27:45;9.90;;;1.58;;
71655;SDS011;59497;48.798;8.816;2023-09-18T13:30:11;5.87;;;1.80;;
71655;SDS011;59497;48.798;8.816;2023-09-18T13:32:36;3.37;;;1.53;;
71655;SDS011;59497;48.798;8.816;2023-09-18T13:35:02;2.67;;;1.57;;
71655;SDS011;59497;48.798;8.816;2023-09-18T13:37:30;2.67;;;1.50;;
71655;SDS011;59497;48.798;8.816;2023-09-18T13:39:55;4.20;;;1.60;;
71655;SDS011;59497;48.798;8.816;2023-09-18T13:42:20;3.20;;;1.27;;
71655;SDS011;59497;48.798;8.816;2023-09-18T13:44:45;1.27;;;1.10;;
71655;SDS011;59497;48.798;8.816;2023-09-18T13:47:12;2.55;;;1.48;;
71655;SDS011;59497;48.798;8.816;2023-09-18T13:49:37;3.20;;;2.20;;
71655;SDS011;59497;48.798;8.816;2023-09-18T13:52:02;5.13;;;1.50;;
71655;SDS011;59497;48.798;8.816;2023-09-18T13:54:28;2.67;;;1.60;;
71655;SDS011;59497;48.798;8.816;2023-09-18T13:56:54;2.03;;;1.50;;
71655;SDS011;59497;48.798;8.816;2023-09-18T13:59:20;1.17;;;0.93;;
71655;SDS011;59497;48.798;8.816;2023-09-18T14:01:45;3.00;;;1.50;;
71655;SDS011;59497;48.798;8.816;2023-09-18T14:04:10;1.23;;;1.13;;
71655;SDS011;59497;48.798;8.816;2023-09-18T14:06:36;2.97;;;1.50;;
71655;SDS011;59497;48.798;8.816;2023-09-18T14:09:01;2.80;;;1.57;;
71655;SDS011;59497;48.798;8.816;2023-09-18T14:11:26;2.40;;;1.73;;
71655;SDS011;59497;48.798;8.816;2023-09-18T14:13:51;2.63;;;1.27;;
71655;SDS011;59497;48.798;8.816;2023-09-18T14:16:16;2.07;;;1.33;;
71655;SDS011;59497;48.798;8.816;2023-09-18T14:18:42;2.15;;;1.40;;
71655;SDS011;59497;48.798;8.816;2023-09-18T14:21:08;2.80;;;1.50;;
71655;SDS011;59497;48.798;8.816;2023-09-18T14:23:34;1.67;;;1.00;;
71655;SDS011;59497;48.798;8.816;2023-09-18T14:25:59;1.93;;;1.67;;
71655;SDS011;59497;48.798;8.816;2023-09-18T14:28:25;1.43;;;1.30;;
71655;SDS011;59497;48.798;8.816;2023-09-18T14:30:51;2.33;;;1.37;;
71655;SDS011;59497;48.798;8.816;2023-09-18T14:33:16;2.53;;;2.33;;
71655;SDS011;59497;48.798;8.816;2023-09-18T14:35:41;2.07;;;1.63;;
71655;SDS011;59497;48.798;8.816;2023-09-18T14:38:07;3.30;;;1.67;;
71655;SDS011;59497;48.798;8.816;2023-09-18T14:40:33;2.38;;;1.30;;
71655;SDS011;59497;48.798;8.816;2023-09-18T14:42:58;1.67;;;1.57;;
71655;SDS011;59497;48.798;8.816;2023-09-18T14:45:23;1.87;;;1.70;;
71655;SDS011;59497;48.798;8.816;2023-09-18T14:47:48;1.37;;;1.27;;
71655;SDS011;59497;48.798;8.816;2023-09-18T14:50:13;1.93;;;1.67;;
71655;SDS011;59497;48.798;8.816;2023-09-18T14:52:39;1.93;;;1.20;;
71655;SDS011;59497;48.798;8.816;2023-09-18T14:55:04;2.67;;;1.40;;
71655;SDS011;59497;48.798;8.816;2023-09-18T14:57:30;1.67;;;1.48;;
71655;SDS011;59497;48.798;8.816;2023-09-18T14:59:55;2.60;;;1.65;;
71655;SDS011;59497;48.798;8.816;2023-09-18T15:02:20;1.40;;;1.20;;